首页
METAR-TAF:

METAR-TAF

机场 :

Peterborough, 安大略省, 加拿大

纬度: 44-14N, 经度: 078-22W, 海拔: 191米

当前天气观测

该预报发布于34分钟前的14:00 UTC
静风
温度 -14°C
湿度 92%
气压 1031 hPa
能見度: 14.5公里
阴天层高于3500英尺

METAR: CYPQ 211400Z AUTO 00000KT 9SM OVC035 M14/M15 A3045 RMK SLP329

时间: 09:34 (14:34 UTC)

预报

该预报发布于56分钟前的13:38 UTC
预报有效从21日的 14点(UTC)到 22日的 02点(UTC)
风速5节,风向西
能見度: 10公里
阴天层高于3000英尺
成为
从 21日的 16点(UTC)到 21日的 18点(UTC)
风速10节,风向西
从 21日的 1900点(UTC)
风速10节,风向西转西南,有时为20节阵风
能見度: 10公里
多云层高于3000英尺
阴天层高于12000英尺
成为
从 21日的 22点(UTC)到 21日的 24点(UTC)
风速8节,风向西转西南

TAF: CYPQ 211338Z 2114/2202 26005KT P6SM OVC030 BECMG 2116/2118 26010KT FM211900 25010G20KT P6SM BKN030 OVC120 BECMG 2122/2124 25008KT RMK FCST BASED ON AUTO OBS. NXT FCST BY 212000Z

超过4000个机场的气象观测和天气预报(METAR&TAF报告)。

可查询的气象台以黄色和红色小点在地图上表示。

将鼠标移到小点上方,可查看气象台名称。

然后点击查看天气观测和预报。

如需切换地图:点击带黑十字的绿色按钮放大地图;点击带横线的绿色按钮缩小地图;或者点击绿色箭头查看邻近地区的地图。


METAR-TAF: